createdAt,value
2022-08-25T00:01:35.393Z,63.78
2022-08-25T00:04:03.394Z,63.16
2022-08-25T00:06:29.773Z,63.56
2022-08-25T00:08:59.524Z,63.53
2022-08-25T00:11:26.557Z,63.67
2022-08-25T00:13:54.156Z,63.57
2022-08-25T00:16:20.819Z,63.43
2022-08-25T00:18:49.424Z,63.43
2022-08-25T00:21:15.789Z,63.74
2022-08-25T00:23:42.211Z,63.61
2022-08-25T00:26:08.591Z,62.88
2022-08-25T00:28:35.566Z,63.37
2022-08-25T00:31:02.100Z,63.28
2022-08-25T00:33:28.523Z,63.09
2022-08-25T00:35:56.341Z,63.48
2022-08-25T00:38:22.698Z,63.38
2022-08-25T00:41:05.693Z,63.21
2022-08-25T00:43:38.011Z,63.31
2022-08-25T00:46:04.481Z,63.44
2022-08-25T00:48:30.869Z,63.38
2022-08-25T00:50:57.235Z,63.47
2022-08-25T00:53:24.230Z,63.56
2022-08-25T00:55:50.606Z,63.60
2022-08-25T00:58:18.479Z,63.39
2022-08-25T01:00:45.893Z,63.62
2022-08-25T01:03:12.300Z,63.43
2022-08-25T01:05:38.666Z,63.66
2022-08-25T01:08:07.011Z,63.32
2022-08-25T01:10:33.838Z,63.55
2022-08-25T01:13:01.698Z,63.54
2022-08-25T01:15:28.120Z,63.39
2022-08-25T01:17:54.919Z,63.65
2022-08-25T01:20:22.110Z,63.50
2022-08-25T01:22:55.133Z,63.54
2022-08-25T01:25:27.581Z,63.63
2022-08-25T01:27:53.939Z,63.68
2022-08-25T01:30:20.286Z,63.56
2022-08-25T01:32:46.750Z,63.57
2022-08-25T01:35:13.101Z,63.71
2022-08-25T01:37:39.465Z,63.44
2022-08-25T01:40:06.564Z,63.73
2022-08-25T01:42:37.419Z,63.63
2022-08-25T01:45:04.214Z,63.70
2022-08-25T01:47:31.935Z,63.35
2022-08-25T01:49:58.289Z,63.48
2022-08-25T01:52:53.767Z,63.51
2022-08-25T01:55:20.122Z,63.31
2022-08-25T01:57:46.473Z,63.41
2022-08-25T02:00:14.443Z,63.51
2022-08-25T02:02:42.470Z,63.57
2022-08-25T02:05:09.697Z,63.45
2022-08-25T02:07:36.373Z,63.12
2022-08-25T02:10:04.233Z,63.28
2022-08-25T02:12:33.625Z,63.29
2022-08-25T02:15:01.648Z,63.22
2022-08-25T02:17:28.550Z,63.13
2022-08-25T02:19:56.902Z,63.23
2022-08-25T02:22:23.368Z,63.05
2022-08-25T02:24:49.966Z,63.20
2022-08-25T02:27:16.401Z,63.13
2022-08-25T02:29:42.750Z,63.02
2022-08-25T02:32:10.306Z,63.05
2022-08-25T02:34:37.250Z,63.19
2022-08-25T02:37:03.611Z,63.11
2022-08-25T02:39:29.971Z,63.18
2022-08-25T02:41:56.330Z,63.07
2022-08-25T02:44:22.686Z,62.66
2022-08-25T02:46:49.034Z,62.99
2022-08-25T02:49:15.409Z,63.14
2022-08-25T02:51:42.869Z,63.25
2022-08-25T02:54:10.199Z,63.27
2022-08-25T02:56:36.654Z,63.04
2022-08-25T02:59:03.100Z,63.28
2022-08-25T03:01:33.767Z,63.02
2022-08-25T03:04:07.125Z,63.14
2022-08-25T03:06:33.469Z,63.25
2022-08-25T03:09:08.618Z,63.07
2022-08-25T03:11:35.018Z,63.00
2022-08-25T03:14:01.399Z,63.00
2022-08-25T03:16:28.214Z,63.09
2022-08-25T03:18:54.683Z,62.99
2022-08-25T03:21:21.310Z,63.08
2022-08-25T03:23:48.470Z,62.84
2022-08-25T03:26:33.378Z,63.00
2022-08-25T03:29:00.238Z,63.00
2022-08-25T03:31:27.693Z,62.89
2022-08-25T03:33:54.318Z,62.68
2022-08-25T03:36:20.678Z,62.74
2022-08-25T03:38:47.033Z,62.85
2022-08-25T03:41:32.748Z,62.83
2022-08-25T03:43:59.725Z,62.87
2022-08-25T03:46:26.984Z,62.68
2022-08-25T03:48:53.372Z,62.75
2022-08-25T03:51:23.009Z,62.76
2022-08-25T03:53:49.386Z,62.59
2022-08-25T03:56:16.171Z,62.47
2022-08-25T03:58:42.586Z,62.58
2022-08-25T04:01:09.499Z,62.53
2022-08-25T04:03:35.921Z,62.45
2022-08-25T04:06:10.114Z,62.56
2022-08-25T04:08:36.609Z,62.41
2022-08-25T04:11:10.198Z,62.21
2022-08-25T04:13:36.813Z,62.27
2022-08-25T04:16:04.389Z,62.57
2022-08-25T04:18:31.281Z,65.84
2022-08-25T04:21:04.057Z,80.18
2022-08-25T04:23:30.427Z,85.47
2022-08-25T04:25:56.794Z,86.55
2022-08-25T04:28:23.935Z,86.55
2022-08-25T04:30:52.123Z,86.52
2022-08-25T04:33:18.660Z,86.83
2022-08-25T04:35:48.867Z,86.53
2022-08-25T04:38:15.236Z,89.30
2022-08-25T04:40:41.595Z,88.16
2022-08-25T04:43:07.969Z,87.41
2022-08-25T04:45:38.434Z,82.76
2022-08-25T04:48:04.865Z,80.70
2022-08-25T04:50:31.320Z,79.60
2022-08-25T04:52:59.602Z,79.33
2022-08-25T04:55:28.972Z,79.72
2022-08-25T04:57:55.356Z,79.97
2022-08-25T05:00:21.729Z,80.27
2022-08-25T05:02:48.105Z,81.15
2022-08-25T05:05:14.469Z,80.99
2022-08-25T05:07:51.327Z,80.21
2022-08-25T05:10:17.730Z,79.98
2022-08-25T05:12:44.090Z,79.40
2022-08-25T05:15:29.514Z,80.51
2022-08-25T05:17:56.239Z,79.97
2022-08-25T05:20:22.847Z,79.85
2022-08-25T05:22:49.240Z,79.48
2022-08-25T05:25:15.734Z,80.01
2022-08-25T05:27:42.290Z,79.97
2022-08-25T05:30:09.792Z,80.33
2022-08-25T05:32:36.219Z,80.41
2022-08-25T05:35:02.794Z,80.15
2022-08-25T05:37:29.145Z,79.86
2022-08-25T05:39:55.524Z,79.98
2022-08-25T05:42:22.722Z,78.62
2022-08-25T05:44:49.143Z,79.07
2022-08-25T05:47:15.498Z,80.32
2022-08-25T05:49:41.884Z,79.38
2022-08-25T05:52:08.255Z,77.72
2022-08-25T05:54:34.613Z,78.89
2022-08-25T05:57:01.222Z,78.78
2022-08-25T05:59:27.607Z,78.72
2022-08-25T06:02:12.827Z,79.40
2022-08-25T06:04:41.273Z,79.33
2022-08-25T06:07:07.802Z,77.17
2022-08-25T06:09:34.176Z,77.44
2022-08-25T06:12:00.703Z,79.82
2022-08-25T06:14:27.396Z,80.06
2022-08-25T06:16:53.773Z,79.66
2022-08-25T06:19:21.112Z,77.48
2022-08-25T06:21:47.757Z,77.82
2022-08-25T06:24:15.687Z,78.05
2022-08-25T06:26:42.286Z,76.96
2022-08-25T06:29:08.656Z,76.95
2022-08-25T06:31:35.120Z,78.66
2022-08-25T06:34:01.550Z,79.41
2022-08-25T06:36:28.254Z,79.32
2022-08-25T06:38:54.631Z,79.41
2022-08-25T06:41:20.991Z,79.45
2022-08-25T06:43:50.755Z,79.98
2022-08-25T06:46:18.322Z,79.69
2022-08-25T06:48:44.718Z,78.60
2022-08-25T06:51:13.916Z,78.09
2022-08-25T06:53:40.663Z,76.96
2022-08-25T06:56:07.051Z,77.02
2022-08-25T06:58:33.929Z,77.87
2022-08-25T07:01:14.955Z,79.87
2022-08-25T07:03:45.989Z,79.75
2022-08-25T07:06:14.004Z,80.73
2022-08-25T07:08:41.042Z,80.54
2022-08-25T07:11:07.763Z,80.82
2022-08-25T07:13:42.860Z,81.32
2022-08-25T07:16:11.043Z,82.90
2022-08-25T07:18:37.800Z,79.72
2022-08-25T07:21:04.171Z,78.07
2022-08-25T07:23:30.559Z,76.41
2022-08-25T07:25:56.933Z,75.57
2022-08-25T07:28:23.302Z,75.73
2022-08-25T07:30:52.163Z,76.63
2022-08-25T07:33:18.676Z,75.61
2022-08-25T07:35:45.284Z,75.32
2022-08-25T07:38:13.552Z,75.66
2022-08-25T07:40:46.057Z,74.82
2022-08-25T07:43:19.856Z,73.40
2022-08-25T07:48:32.948Z,72.69
2022-08-25T07:51:01.747Z,71.97
2022-08-25T07:53:30.611Z,71.89
2022-08-25T07:55:57.026Z,72.10
2022-08-25T07:58:23.435Z,71.99
2022-08-25T08:00:53.063Z,71.76
2022-08-25T08:03:42.309Z,71.43
2022-08-25T08:06:07.539Z,71.03
2022-08-25T08:08:33.911Z,70.76
2022-08-25T08:11:04.775Z,71.02
2022-08-25T08:13:32.663Z,71.23
2022-08-25T08:16:01.222Z,71.12
2022-08-25T08:18:27.630Z,71.02
2022-08-25T08:20:54.069Z,70.83
2022-08-25T08:23:21.060Z,70.53
2022-08-25T08:25:47.954Z,70.81
2022-08-25T08:28:14.377Z,70.79
2022-08-25T08:30:40.750Z,70.76
2022-08-25T08:33:20.538Z,70.42
2022-08-25T08:35:47.503Z,70.39
2022-08-25T08:38:19.578Z,70.29
2022-08-25T08:41:14.502Z,70.69
2022-08-25T08:43:41.760Z,70.09
2022-08-25T08:46:08.301Z,70.23
2022-08-25T08:48:44.528Z,70.02
2022-08-25T08:51:17.155Z,69.94
2022-08-25T08:53:52.503Z,69.73
2022-08-25T08:56:30.780Z,69.65
2022-08-25T08:59:06.427Z,70.25
2022-08-25T09:01:42.414Z,70.55
2022-08-25T09:04:11.107Z,70.46
2022-08-25T09:06:45.509Z,71.15
2022-08-25T09:09:12.366Z,70.96
2022-08-25T09:11:47.493Z,70.79
2022-08-25T09:14:18.709Z,71.23
2022-08-25T09:16:56.890Z,71.26
2022-08-25T09:19:26.173Z,71.54
2022-08-25T09:21:52.765Z,71.89
2022-08-25T09:24:36.003Z,71.94
2022-08-25T09:27:24.240Z,71.88
2022-08-25T09:30:05.573Z,71.54
2022-08-25T09:32:34.098Z,71.42
2022-08-25T09:35:01.990Z,71.46
2022-08-25T09:37:28.417Z,71.33
2022-08-25T09:39:54.847Z,71.08
2022-08-25T09:42:27.541Z,70.23
2022-08-25T09:44:54.486Z,69.53
2022-08-25T09:47:24.254Z,69.08
2022-08-25T09:50:00.964Z,68.88
2022-08-25T09:52:37.279Z,68.41
2022-08-25T09:55:20.379Z,69.50
2022-08-25T09:57:47.759Z,68.99
2022-08-25T10:00:14.356Z,67.82
2022-08-25T10:02:41.534Z,68.06
2022-08-25T10:05:25.819Z,68.32
2022-08-25T10:07:54.265Z,68.98
2022-08-25T10:10:25.882Z,68.91
2022-08-25T10:12:52.329Z,68.99
2022-08-25T10:15:29.749Z,68.71
2022-08-25T10:17:59.853Z,68.69
2022-08-25T10:20:26.679Z,68.73
2022-08-25T10:23:13.070Z,69.01
2022-08-25T10:25:57.694Z,69.46
2022-08-25T10:28:29.476Z,69.18
2022-08-25T10:31:14.922Z,68.96
2022-08-25T10:33:41.273Z,68.53
2022-08-25T10:36:10.657Z,68.06
2022-08-25T10:38:37.007Z,68.21
2022-08-25T10:41:22.403Z,67.56
2022-08-25T10:43:59.223Z,68.02
2022-08-25T10:46:30.217Z,68.08
2022-08-25T10:49:04.518Z,66.99
2022-08-25T10:51:32.806Z,67.38
2022-08-25T10:54:20.387Z,67.98
2022-08-25T10:56:50.250Z,68.67
2022-08-25T10:59:31.556Z,68.63
2022-08-25T11:02:03.290Z,68.40
2022-08-25T11:04:36.505Z,68.37
2022-08-25T11:07:23.217Z,68.53
2022-08-25T11:09:51.050Z,68.19
2022-08-25T11:22:07.309Z,67.79
2022-08-25T11:27:53.750Z,68.01
2022-08-25T11:30:21.465Z,68.64
2022-08-25T11:32:51.161Z,68.66
2022-08-25T11:35:23.062Z,68.83
2022-08-25T11:37:56.955Z,68.01
2022-08-25T11:40:29.657Z,68.40
2022-08-25T11:42:57.533Z,67.76
2022-08-25T11:45:42.546Z,66.81
2022-08-25T11:48:12.079Z,66.52
2022-08-25T11:50:57.793Z,65.92
2022-08-25T11:53:29.036Z,65.48
2022-08-25T11:56:04.184Z,65.29
2022-08-25T11:58:40.957Z,65.11
2022-08-25T12:01:25.844Z,65.03
2022-08-25T12:03:52.918Z,65.39
2022-08-25T12:06:26.611Z,66.28
2022-08-25T12:08:54.170Z,67.29
2022-08-25T12:11:42.999Z,66.63
2022-08-25T12:14:16.726Z,66.41
2022-08-25T12:16:44.040Z,66.83
2022-08-25T12:19:30.442Z,66.51
2022-08-25T12:22:19.053Z,66.97
2022-08-25T12:24:48.773Z,67.16
2022-08-25T12:27:33.610Z,66.35
2022-08-25T12:30:29.628Z,66.45
2022-08-25T12:33:08.474Z,66.04
2022-08-25T12:35:40.238Z,65.65
2022-08-25T12:38:09.394Z,65.71
2022-08-25T12:40:52.551Z,65.46
2022-08-25T12:43:37.230Z,65.45
2022-08-25T12:46:29.600Z,65.37
2022-08-25T12:48:57.055Z,65.36
2022-08-25T12:51:25.210Z,66.47
2022-08-25T12:53:53.302Z,66.38
2022-08-25T12:56:19.572Z,66.56
2022-08-25T12:59:01.075Z,66.60
2022-08-25T13:01:36.003Z,66.67
2022-08-25T13:04:26.422Z,66.88
2022-08-25T13:07:04.891Z,66.95
2022-08-25T13:09:53.659Z,66.98
2022-08-25T13:12:39.030Z,66.97
2022-08-25T13:15:05.535Z,67.01
2022-08-25T13:17:33.658Z,67.26
2022-08-25T13:20:17.117Z,68.24
2022-08-25T13:22:47.427Z,68.43
2022-08-25T13:25:16.096Z,67.29
2022-08-25T13:27:49.022Z,67.11
2022-08-25T13:30:19.907Z,67.22
2022-08-25T13:32:46.264Z,65.37
2022-08-25T13:35:17.806Z,64.66
2022-08-25T13:37:46.364Z,64.94
2022-08-25T13:40:16.384Z,64.94
2022-08-25T13:42:50.910Z,64.14
2022-08-25T13:45:22.097Z,63.85
2022-08-25T13:47:50.374Z,63.74
2022-08-25T13:50:28.888Z,63.04
2022-08-25T13:52:56.446Z,62.63
2022-08-25T13:55:27.793Z,63.28
2022-08-25T13:57:55.214Z,62.86
2022-08-25T14:00:43.166Z,63.31
2022-08-25T14:03:16.857Z,62.40
2022-08-25T14:05:46.800Z,63.19
2022-08-25T14:08:28.991Z,62.65
2022-08-25T14:11:07.886Z,62.36
2022-08-25T14:13:44.523Z,63.52
2022-08-25T14:16:12.568Z,63.01
2022-08-25T14:18:39.422Z,63.49
2022-08-25T14:21:10.074Z,63.00
2022-08-25T14:23:36.572Z,63.35
2022-08-25T14:26:02.940Z,62.80
2022-08-25T14:28:33.421Z,63.09
2022-08-25T14:31:00.268Z,63.23
2022-08-25T14:33:30.259Z,63.13
2022-08-25T14:35:58.026Z,62.46
2022-08-25T14:38:24.527Z,62.76
2022-08-25T14:40:50.986Z,63.10
2022-08-25T14:43:17.425Z,62.59
2022-08-25T14:45:44.178Z,62.65
2022-08-25T14:48:17.975Z,62.92
2022-08-25T14:50:44.352Z,63.53
2022-08-25T14:53:11.228Z,64.09
2022-08-25T14:55:38.711Z,64.46
2022-08-25T14:58:06.830Z,64.44
2022-08-25T15:00:34.146Z,64.02
2022-08-25T15:03:01.442Z,64.76
2022-08-25T15:05:29.007Z,64.06
2022-08-25T15:08:15.201Z,64.20
2022-08-25T15:10:41.602Z,64.38
2022-08-25T15:13:09.678Z,64.68
2022-08-25T15:15:39.866Z,64.96
2022-08-25T15:18:19.436Z,64.86
2022-08-25T15:20:46.743Z,64.87
2022-08-25T15:23:16.352Z,64.87
2022-08-25T15:25:42.731Z,64.98
2022-08-25T15:28:10.124Z,64.80
2022-08-25T15:30:36.641Z,64.88
2022-08-25T15:33:03.006Z,65.03
2022-08-25T15:35:30.999Z,64.97
2022-08-25T15:37:57.621Z,64.88
2022-08-25T15:40:24.017Z,65.03
2022-08-25T15:42:51.087Z,65.05
2022-08-25T15:45:17.454Z,64.96
2022-08-25T15:47:44.187Z,64.99
2022-08-25T15:50:11.968Z,65.06
2022-08-25T15:52:46.458Z,65.02
2022-08-25T15:55:13.977Z,65.69
2022-08-25T15:57:40.338Z,68.66
2022-08-25T16:00:11.132Z,70.49
2022-08-25T16:02:39.421Z,69.01
2022-08-25T16:05:06.793Z,69.24
2022-08-25T16:07:33.176Z,69.06
2022-08-25T16:09:59.546Z,70.38
2022-08-25T16:12:25.911Z,68.53
2022-08-25T16:14:54.358Z,69.75
2022-08-25T16:17:22.089Z,69.63
2022-08-25T16:19:48.535Z,69.72
2022-08-25T16:22:14.933Z,67.56
2022-08-25T16:24:42.522Z,67.00
2022-08-25T16:27:11.472Z,67.55
2022-08-25T16:29:38.539Z,67.40
2022-08-25T16:32:05.232Z,67.25
2022-08-25T16:34:31.784Z,66.96
2022-08-25T16:37:00.803Z,66.73
2022-08-25T16:39:27.205Z,65.90
2022-08-25T16:41:53.578Z,66.16
2022-08-25T16:44:22.655Z,64.72
2022-08-25T16:46:49.343Z,65.95
2022-08-25T16:49:17.436Z,64.81
2022-08-25T16:51:43.803Z,64.58
2022-08-25T16:54:29.083Z,64.73
2022-08-25T16:56:55.659Z,64.94
2022-08-25T16:59:22.127Z,64.91
2022-08-25T17:01:50.100Z,65.30
2022-08-25T17:04:17.270Z,65.12
2022-08-25T17:06:49.609Z,64.21
2022-08-25T17:09:23.055Z,64.27
2022-08-25T17:11:50.486Z,64.15
2022-08-25T17:14:18.020Z,64.62
2022-08-25T17:16:44.403Z,64.22
2022-08-25T17:19:12.640Z,64.28
2022-08-25T17:21:40.545Z,64.36
2022-08-25T17:24:11.662Z,64.68
2022-08-25T17:26:38.749Z,64.66
2022-08-25T17:29:05.111Z,64.64
2022-08-25T17:31:34.978Z,64.81
2022-08-25T17:34:01.486Z,64.71
2022-08-25T17:36:27.867Z,64.60
2022-08-25T17:38:54.547Z,64.77
2022-08-25T17:41:21.034Z,64.76
2022-08-25T17:43:47.665Z,64.82
2022-08-25T17:46:15.167Z,64.76
2022-08-25T17:48:43.740Z,64.91
2022-08-25T17:51:10.327Z,64.98
2022-08-25T17:53:36.687Z,64.95
2022-08-25T17:56:04.717Z,64.96
2022-08-25T17:58:31.175Z,64.97
2022-08-25T18:00:57.683Z,64.98
2022-08-25T18:03:25.451Z,65.17
2022-08-25T18:05:51.826Z,65.06
2022-08-25T18:08:18.800Z,65.11
2022-08-25T18:10:46.040Z,65.31
2022-08-25T18:13:12.432Z,69.48
2022-08-25T18:15:39.159Z,68.43
2022-08-25T18:18:09.612Z,67.24
2022-08-25T18:20:38.873Z,66.91
2022-08-25T18:23:09.458Z,65.48
2022-08-25T18:25:36.217Z,65.55
2022-08-25T18:28:02.681Z,67.14
2022-08-25T18:30:29.070Z,65.32
2022-08-25T18:32:55.413Z,65.03
2022-08-25T18:35:22.276Z,64.76
2022-08-25T18:38:11.556Z,64.57
2022-08-25T18:40:39.113Z,64.79
2022-08-25T18:43:06.766Z,64.84
2022-08-25T18:45:37.964Z,65.28
2022-08-25T18:48:13.739Z,65.83
2022-08-25T18:50:40.994Z,66.44
2022-08-25T18:53:07.422Z,65.18
2022-08-25T18:55:33.875Z,64.96
2022-08-25T18:58:00.472Z,64.70
2022-08-25T19:00:27.638Z,64.63
2022-08-25T19:02:54.850Z,64.47
2022-08-25T19:05:23.601Z,64.63
2022-08-25T19:07:52.903Z,64.71
2022-08-25T19:10:19.765Z,65.03
2022-08-25T19:12:46.122Z,65.04
2022-08-25T19:15:12.725Z,65.19
2022-08-25T19:17:39.069Z,65.28
2022-08-25T19:20:11.387Z,65.23
2022-08-25T19:22:41.838Z,65.36
2022-08-25T19:25:09.353Z,65.47
2022-08-25T19:27:35.704Z,65.55
2022-08-25T19:30:02.325Z,65.42
2022-08-25T19:32:28.742Z,65.61
2022-08-25T19:34:55.443Z,65.48
2022-08-25T19:37:23.749Z,66.40
2022-08-25T19:39:53.846Z,67.09
2022-08-25T19:42:37.019Z,66.09
2022-08-25T19:45:07.025Z,68.53
2022-08-25T19:47:33.396Z,68.23
2022-08-25T19:49:59.843Z,66.60
2022-08-25T19:52:26.593Z,67.82
2022-08-25T19:54:53.358Z,67.45
2022-08-25T19:57:27.756Z,66.02
2022-08-25T19:59:55.059Z,64.86
2022-08-25T20:02:22.383Z,64.79
2022-08-25T20:04:50.256Z,65.52
2022-08-25T20:07:17.429Z,65.73
2022-08-25T20:09:45.271Z,66.47
2022-08-25T20:12:11.941Z,64.90
2022-08-25T20:14:38.375Z,65.25
2022-08-25T20:17:04.720Z,64.39
2022-08-25T20:19:49.807Z,64.29
2022-08-25T20:22:17.414Z,64.56
2022-08-25T20:24:55.922Z,64.29
2022-08-25T20:27:25.383Z,63.80
2022-08-25T20:29:51.743Z,64.07
2022-08-25T20:32:19.339Z,65.04
2022-08-25T20:34:46.038Z,64.57
2022-08-25T20:37:12.645Z,64.93
2022-08-25T20:39:39.134Z,64.25
2022-08-25T20:42:05.515Z,64.13
2022-08-25T20:44:33.824Z,63.77
2022-08-25T20:47:01.463Z,64.37
2022-08-25T20:49:28.345Z,64.75
2022-08-25T20:51:54.715Z,64.70
2022-08-25T20:54:21.454Z,65.03
2022-08-25T20:56:49.296Z,65.36
2022-08-25T20:59:16.886Z,65.05
2022-08-25T21:01:43.300Z,65.25
2022-08-25T21:04:11.245Z,65.20
2022-08-25T21:06:40.864Z,65.14
2022-08-25T21:09:12.467Z,65.46
2022-08-25T21:11:42.169Z,65.21
2022-08-25T21:14:09.732Z,64.93
2022-08-25T21:16:37.608Z,65.01
2022-08-25T21:19:03.997Z,65.04
2022-08-25T21:21:35.278Z,64.99
2022-08-25T21:24:01.899Z,65.15
2022-08-25T21:26:29.569Z,65.19
2022-08-25T21:28:59.839Z,65.20
2022-08-25T21:31:26.330Z,65.23
2022-08-25T21:33:53.119Z,65.29
2022-08-25T21:36:20.322Z,65.46
2022-08-25T21:38:47.597Z,65.52
2022-08-25T21:41:15.464Z,65.48
2022-08-25T21:43:41.809Z,65.46
2022-08-25T21:46:11.398Z,65.56
2022-08-25T21:48:41.483Z,65.51
2022-08-25T21:51:09.146Z,65.43
2022-08-25T21:53:35.614Z,65.52
2022-08-25T21:56:02.770Z,65.53
2022-08-25T21:58:29.647Z,65.80
2022-08-25T22:00:56.064Z,65.67
2022-08-25T22:03:22.420Z,65.59
2022-08-25T22:05:49.639Z,65.58
2022-08-25T22:08:16.627Z,65.52
2022-08-25T22:10:44.446Z,65.66
2022-08-25T22:13:10.867Z,65.50
2022-08-25T22:15:37.809Z,65.66
2022-08-25T22:18:04.159Z,65.53
2022-08-25T22:20:30.933Z,65.62
2022-08-25T22:22:57.313Z,65.66
2022-08-25T22:25:26.406Z,65.56
2022-08-25T22:27:56.660Z,65.75
2022-08-25T22:30:23.935Z,65.64
2022-08-25T22:32:51.023Z,65.73
2022-08-25T22:35:17.410Z,65.73
2022-08-25T22:37:46.945Z,65.72
2022-08-25T22:40:13.886Z,65.86
2022-08-25T22:42:42.287Z,65.86
2022-08-25T22:45:11.250Z,65.78
2022-08-25T22:47:37.609Z,65.92
2022-08-25T22:50:04.787Z,65.88
2022-08-25T22:52:33.659Z,66.04
2022-08-25T22:55:00.322Z,66.22
2022-08-25T22:57:26.925Z,65.97
2022-08-25T22:59:56.471Z,66.02
2022-08-25T23:02:22.910Z,65.97
2022-08-25T23:04:49.327Z,66.20
2022-08-25T23:07:16.021Z,66.04
2022-08-25T23:09:42.388Z,66.15
2022-08-25T23:12:10.967Z,66.09
2022-08-25T23:14:38.312Z,66.02
2022-08-25T23:17:08.725Z,66.17
2022-08-25T23:19:35.151Z,66.16
2022-08-25T23:22:10.976Z,66.01
2022-08-25T23:24:38.054Z,66.12
2022-08-25T23:27:09.355Z,66.14
2022-08-25T23:29:36.353Z,65.95
2022-08-25T23:32:02.869Z,66.29
2022-08-25T23:34:29.278Z,66.18
2022-08-25T23:36:55.875Z,66.21
2022-08-25T23:39:22.494Z,66.32
2022-08-25T23:41:49.237Z,66.22
2022-08-25T23:44:17.175Z,66.26
2022-08-25T23:46:44.422Z,66.05
2022-08-25T23:49:10.893Z,66.15
2022-08-25T23:51:38.009Z,66.32
2022-08-25T23:54:05.934Z,66.05
2022-08-25T23:56:35.308Z,66.06
2022-08-25T23:59:02.992Z,66.21
